sensor_id;sensor_type;location;lat;lon;timestamp;P1;durP1;ratioP1;P2;durP2;ratioP2
59974;SDS011;62136;-35.664;-63.766;2024-03-23T00:54:29;3.28;;;1.42;;
59974;SDS011;62136;-35.664;-63.766;2024-03-23T00:56:56;2.88;;;1.30;;
59974;SDS011;62136;-35.664;-63.766;2024-03-23T00:59:23;3.85;;;1.30;;
59974;SDS011;62136;-35.664;-63.766;2024-03-23T01:01:54;3.22;;;1.20;;
59974;SDS011;62136;-35.664;-63.766;2024-03-23T01:04:21;2.63;;;1.42;;
59974;SDS011;62136;-35.664;-63.766;2024-03-23T01:06:48;3.80;;;1.40;;
59974;SDS011;62136;-35.664;-63.766;2024-03-23T01:09:15;4.65;;;1.48;;
59974;SDS011;62136;-35.664;-63.766;2024-03-23T01:11:42;2.53;;;1.17;;
59974;SDS011;62136;-35.664;-63.766;2024-03-23T01:14:09;7.80;;;1.45;;
59974;SDS011;62136;-35.664;-63.766;2024-03-23T01:16:36;3.47;;;1.33;;
59974;SDS011;62136;-35.664;-63.766;2024-03-23T01:19:03;3.38;;;1.60;;
59974;SDS011;62136;-35.664;-63.766;2024-03-23T01:21:31;4.60;;;1.58;;
59974;SDS011;62136;-35.664;-63.766;2024-03-23T01:23:58;3.40;;;1.80;;
59974;SDS011;62136;-35.664;-63.766;2024-03-23T01:26:25;4.68;;;1.50;;
59974;SDS011;62136;-35.664;-63.766;2024-03-23T01:28:52;5.40;;;1.35;;
59974;SDS011;62136;-35.664;-63.766;2024-03-23T01:31:19;5.00;;;1.42;;
59974;SDS011;62136;-35.664;-63.766;2024-03-23T01:33:46;5.70;;;1.67;;
59974;SDS011;62136;-35.664;-63.766;2024-03-23T01:36:13;4.55;;;1.30;;
59974;SDS011;62136;-35.664;-63.766;2024-03-23T01:38:40;4.72;;;1.33;;
59974;SDS011;62136;-35.664;-63.766;2024-03-23T01:41:06;5.22;;;1.60;;
59974;SDS011;62136;-35.664;-63.766;2024-03-23T01:43:34;3.60;;;1.42;;
59974;SDS011;62136;-35.664;-63.766;2024-03-23T01:46:01;4.80;;;1.60;;
59974;SDS011;62136;-35.664;-63.766;2024-03-23T01:48:28;2.33;;;1.40;;
59974;SDS011;62136;-35.664;-63.766;2024-03-23T01:50:55;3.83;;;1.65;;
59974;SDS011;62136;-35.664;-63.766;2024-03-23T01:53:22;3.72;;;1.63;;
59974;SDS011;62136;-35.664;-63.766;2024-03-23T01:55:49;3.90;;;1.73;;
59974;SDS011;62136;-35.664;-63.766;2024-03-23T01:58:17;5.72;;;1.50;;
59974;SDS011;62136;-35.664;-63.766;2024-03-23T02:00:44;2.53;;;1.30;;
59974;SDS011;62136;-35.664;-63.766;2024-03-23T02:03:24;4.95;;;1.40;;
59974;SDS011;62136;-35.664;-63.766;2024-03-23T02:05:55;3.70;;;1.25;;
59974;SDS011;62136;-35.664;-63.766;2024-03-23T02:08:23;5.38;;;1.73;;
59974;SDS011;62136;-35.664;-63.766;2024-03-23T02:10:50;5.10;;;1.58;;
59974;SDS011;62136;-35.664;-63.766;2024-03-23T02:13:17;5.75;;;1.50;;
59974;SDS011;62136;-35.664;-63.766;2024-03-23T02:15:45;6.60;;;2.05;;
59974;SDS011;62136;-35.664;-63.766;2024-03-23T02:18:12;5.55;;;1.45;;
59974;SDS011;62136;-35.664;-63.766;2024-03-23T02:20:39;4.38;;;1.40;;
59974;SDS011;62136;-35.664;-63.766;2024-03-23T02:23:12;1.88;;;1.25;;
59974;SDS011;62136;-35.664;-63.766;2024-03-23T02:25:40;4.97;;;1.58;;
59974;SDS011;62136;-35.664;-63.766;2024-03-23T02:28:07;3.38;;;1.40;;
59974;SDS011;62136;-35.664;-63.766;2024-03-23T02:30:34;4.40;;;1.50;;
59974;SDS011;62136;-35.664;-63.766;2024-03-23T02:33:01;3.38;;;1.60;;
59974;SDS011;62136;-35.664;-63.766;2024-03-23T02:35:28;3.10;;;1.10;;
59974;SDS011;62136;-35.664;-63.766;2024-03-23T02:37:56;3.28;;;1.40;;
59974;SDS011;62136;-35.664;-63.766;2024-03-23T02:40:23;3.90;;;1.35;;
59974;SDS011;62136;-35.664;-63.766;2024-03-23T02:42:50;5.40;;;1.58;;
59974;SDS011;62136;-35.664;-63.766;2024-03-23T02:45:17;3.28;;;1.20;;
59974;SDS011;62136;-35.664;-63.766;2024-03-23T02:47:44;4.20;;;1.50;;
59974;SDS011;62136;-35.664;-63.766;2024-03-23T02:50:11;3.88;;;1.48;;
59974;SDS011;62136;-35.664;-63.766;2024-03-23T02:52:40;3.00;;;1.27;;
59974;SDS011;62136;-35.664;-63.766;2024-03-23T02:55:07;4.82;;;1.80;;
59974;SDS011;62136;-35.664;-63.766;2024-03-23T02:57:34;3.60;;;1.52;;
59974;SDS011;62136;-35.664;-63.766;2024-03-23T03:00:01;2.78;;;1.50;;
59974;SDS011;62136;-35.664;-63.766;2024-03-23T03:02:28;1.75;;;1.10;;
59974;SDS011;62136;-35.664;-63.766;2024-03-23T03:04:55;3.00;;;1.17;;
59974;SDS011;62136;-35.664;-63.766;2024-03-23T03:07:22;2.95;;;1.13;;
59974;SDS011;62136;-35.664;-63.766;2024-03-23T03:09:49;4.10;;;1.30;;
59974;SDS011;62136;-35.664;-63.766;2024-03-23T03:12:16;2.53;;;1.23;;
59974;SDS011;62136;-35.664;-63.766;2024-03-23T03:14:43;3.38;;;1.27;;
59974;SDS011;62136;-35.664;-63.766;2024-03-23T03:17:10;3.25;;;1.23;;
59974;SDS011;62136;-35.664;-63.766;2024-03-23T03:19:37;2.75;;;1.60;;
59974;SDS011;62136;-35.664;-63.766;2024-03-23T03:22:04;2.95;;;1.10;;
59974;SDS011;62136;-35.664;-63.766;2024-03-23T03:24:31;3.60;;;1.38;;
59974;SDS011;62136;-35.664;-63.766;2024-03-23T03:26:58;3.72;;;1.40;;
59974;SDS011;62136;-35.664;-63.766;2024-03-23T03:29:25;4.15;;;1.35;;
59974;SDS011;62136;-35.664;-63.766;2024-03-23T03:31:59;3.80;;;1.40;;
59974;SDS011;62136;-35.664;-63.766;2024-03-23T03:34:26;4.05;;;1.20;;
59974;SDS011;62136;-35.664;-63.766;2024-03-23T03:36:54;4.35;;;1.30;;
59974;SDS011;62136;-35.664;-63.766;2024-03-23T03:39:22;4.70;;;1.35;;
59974;SDS011;62136;-35.664;-63.766;2024-03-23T03:41:49;2.10;;;1.10;;
59974;SDS011;62136;-35.664;-63.766;2024-03-23T03:44:16;2.92;;;1.13;;
59974;SDS011;62136;-35.664;-63.766;2024-03-23T03:46:43;4.30;;;1.10;;
59974;SDS011;62136;-35.664;-63.766;2024-03-23T03:49:10;2.17;;;1.02;;
59974;SDS011;62136;-35.664;-63.766;2024-03-23T03:51:37;4.13;;;1.20;;
59974;SDS011;62136;-35.664;-63.766;2024-03-23T03:54:04;4.35;;;1.45;;
59974;SDS011;62136;-35.664;-63.766;2024-03-23T03:56:31;1.75;;;1.10;;
59974;SDS011;62136;-35.664;-63.766;2024-03-23T03:58:58;4.90;;;1.30;;
59974;SDS011;62136;-35.664;-63.766;2024-03-23T04:01:25;3.85;;;1.08;;
59974;SDS011;62136;-35.664;-63.766;2024-03-23T04:03:55;3.30;;;1.25;;
59974;SDS011;62136;-35.664;-63.766;2024-03-23T04:06:22;3.20;;;0.95;;
59974;SDS011;62136;-35.664;-63.766;2024-03-23T04:08:49;3.35;;;0.93;;
59974;SDS011;62136;-35.664;-63.766;2024-03-23T04:11:16;1.92;;;1.00;;
59974;SDS011;62136;-35.664;-63.766;2024-03-23T04:13:43;2.15;;;0.90;;
59974;SDS011;62136;-35.664;-63.766;2024-03-23T04:16:10;5.07;;;1.10;;
59974;SDS011;62136;-35.664;-63.766;2024-03-23T04:18:37;2.10;;;0.77;;
59974;SDS011;62136;-35.664;-63.766;2024-03-23T04:21:04;2.90;;;1.20;;
59974;SDS011;62136;-35.664;-63.766;2024-03-23T04:23:31;4.05;;;1.10;;
59974;SDS011;62136;-35.664;-63.766;2024-03-23T04:26:02;2.88;;;1.23;;
59974;SDS011;62136;-35.664;-63.766;2024-03-23T04:28:30;2.95;;;1.17;;
59974;SDS011;62136;-35.664;-63.766;2024-03-23T04:30:57;2.90;;;1.05;;
59974;SDS011;62136;-35.664;-63.766;2024-03-23T04:33:29;3.92;;;1.30;;
59974;SDS011;62136;-35.664;-63.766;2024-03-23T04:35:56;2.17;;;1.08;;
59974;SDS011;62136;-35.664;-63.766;2024-03-23T04:38:22;2.55;;;1.00;;
59974;SDS011;62136;-35.664;-63.766;2024-03-23T04:40:56;4.60;;;1.23;;
59974;SDS011;62136;-35.664;-63.766;2024-03-23T04:43:25;3.13;;;0.98;;
59974;SDS011;62136;-35.664;-63.766;2024-03-23T04:45:52;2.70;;;1.13;;
59974;SDS011;62136;-35.664;-63.766;2024-03-23T04:48:22;1.98;;;0.90;;
59974;SDS011;62136;-35.664;-63.766;2024-03-23T04:50:54;4.70;;;1.17;;
59974;SDS011;62136;-35.664;-63.766;2024-03-23T04:53:23;2.35;;;0.90;;
59974;SDS011;62136;-35.664;-63.766;2024-03-23T04:55:54;4.38;;;1.10;;
59974;SDS011;62136;-35.664;-63.766;2024-03-23T04:58:22;2.67;;;1.00;;
59974;SDS011;62136;-35.664;-63.766;2024-03-23T05:00:58;3.03;;;1.10;;
59974;SDS011;62136;-35.664;-63.766;2024-03-23T05:03:25;3.42;;;1.05;;
59974;SDS011;62136;-35.664;-63.766;2024-03-23T05:08:21;5.43;;;1.27;;
59974;SDS011;62136;-35.664;-63.766;2024-03-23T05:10:48;3.72;;;1.00;;
59974;SDS011;62136;-35.664;-63.766;2024-03-23T05:13:15;3.30;;;1.15;;
59974;SDS011;62136;-35.664;-63.766;2024-03-23T05:15:42;4.28;;;1.30;;
59974;SDS011;62136;-35.664;-63.766;2024-03-23T05:18:09;3.20;;;1.10;;
59974;SDS011;62136;-35.664;-63.766;2024-03-23T05:20:35;1.92;;;0.90;;
59974;SDS011;62136;-35.664;-63.766;2024-03-23T05:23:03;4.03;;;1.20;;
59974;SDS011;62136;-35.664;-63.766;2024-03-23T05:25:30;2.75;;;0.95;;
59974;SDS011;62136;-35.664;-63.766;2024-03-23T05:27:57;3.65;;;1.10;;
59974;SDS011;62136;-35.664;-63.766;2024-03-23T05:30:24;3.28;;;1.02;;
59974;SDS011;62136;-35.664;-63.766;2024-03-23T05:32:51;3.60;;;1.00;;
59974;SDS011;62136;-35.664;-63.766;2024-03-23T05:35:18;2.72;;;0.90;;
59974;SDS011;62136;-35.664;-63.766;2024-03-23T05:37:45;1.70;;;0.95;;
59974;SDS011;62136;-35.664;-63.766;2024-03-23T05:40:12;4.53;;;1.25;;
59974;SDS011;62136;-35.664;-63.766;2024-03-23T05:42:41;2.15;;;1.20;;
59974;SDS011;62136;-35.664;-63.766;2024-03-23T05:45:08;2.92;;;1.05;;
59974;SDS011;62136;-35.664;-63.766;2024-03-23T05:47:35;2.95;;;1.20;;
59974;SDS011;62136;-35.664;-63.766;2024-03-23T05:50:02;2.38;;;1.00;;
59974;SDS011;62136;-35.664;-63.766;2024-03-23T05:52:29;2.30;;;1.00;;
59974;SDS011;62136;-35.664;-63.766;2024-03-23T05:54:56;3.25;;;0.90;;
59974;SDS011;62136;-35.664;-63.766;2024-03-23T05:57:23;2.55;;;1.30;;
59974;SDS011;62136;-35.664;-63.766;2024-03-23T05:59:51;1.80;;;0.85;;
59974;SDS011;62136;-35.664;-63.766;2024-03-23T06:02:18;4.82;;;1.30;;
59974;SDS011;62136;-35.664;-63.766;2024-03-23T06:04:45;3.30;;;0.98;;
59974;SDS011;62136;-35.664;-63.766;2024-03-23T06:07:12;3.22;;;1.40;;
59974;SDS011;62136;-35.664;-63.766;2024-03-23T06:09:40;1.92;;;1.05;;
59974;SDS011;62136;-35.664;-63.766;2024-03-23T06:12:08;3.00;;;1.02;;
59974;SDS011;62136;-35.664;-63.766;2024-03-23T06:14:35;4.57;;;1.02;;
59974;SDS011;62136;-35.664;-63.766;2024-03-23T06:17:02;4.25;;;1.42;;
59974;SDS011;62136;-35.664;-63.766;2024-03-23T06:19:29;2.50;;;1.27;;
59974;SDS011;62136;-35.664;-63.766;2024-03-23T06:21:56;2.25;;;1.30;;
59974;SDS011;62136;-35.664;-63.766;2024-03-23T06:24:23;2.85;;;1.10;;
59974;SDS011;62136;-35.664;-63.766;2024-03-23T06:26:50;2.47;;;1.55;;
59974;SDS011;62136;-35.664;-63.766;2024-03-23T06:29:17;2.58;;;1.20;;
59974;SDS011;62136;-35.664;-63.766;2024-03-23T06:31:44;2.60;;;1.25;;
59974;SDS011;62136;-35.664;-63.766;2024-03-23T06:34:17;3.42;;;1.23;;
59974;SDS011;62136;-35.664;-63.766;2024-03-23T06:36:46;2.60;;;1.10;;
59974;SDS011;62136;-35.664;-63.766;2024-03-23T06:39:13;4.80;;;1.50;;
59974;SDS011;62136;-35.664;-63.766;2024-03-23T06:41:51;5.65;;;1.23;;
59974;SDS011;62136;-35.664;-63.766;2024-03-23T06:44:19;2.50;;;1.05;;
59974;SDS011;62136;-35.664;-63.766;2024-03-23T06:46:46;4.88;;;1.67;;
59974;SDS011;62136;-35.664;-63.766;2024-03-23T06:49:14;1.50;;;1.10;;
59974;SDS011;62136;-35.664;-63.766;2024-03-23T06:51:41;2.80;;;1.30;;
59974;SDS011;62136;-35.664;-63.766;2024-03-23T06:54:08;3.78;;;1.20;;
59974;SDS011;62136;-35.664;-63.766;2024-03-23T06:56:35;3.97;;;1.35;;
59974;SDS011;62136;-35.664;-63.766;2024-03-23T06:59:02;3.42;;;1.25;;
59974;SDS011;62136;-35.664;-63.766;2024-03-23T07:01:29;3.65;;;1.50;;
59974;SDS011;62136;-35.664;-63.766;2024-03-23T07:03:56;3.42;;;1.15;;
59974;SDS011;62136;-35.664;-63.766;2024-03-23T07:06:23;3.08;;;1.30;;
59974;SDS011;62136;-35.664;-63.766;2024-03-23T07:08:51;3.25;;;1.38;;
59974;SDS011;62136;-35.664;-63.766;2024-03-23T07:11:20;2.63;;;1.48;;
59974;SDS011;62136;-35.664;-63.766;2024-03-23T07:13:49;5.55;;;1.58;;
59974;SDS011;62136;-35.664;-63.766;2024-03-23T07:16:17;2.45;;;1.30;;
59974;SDS011;62136;-35.664;-63.766;2024-03-23T07:18:44;3.10;;;1.58;;
59974;SDS011;62136;-35.664;-63.766;2024-03-23T07:21:11;3.22;;;1.10;;
59974;SDS011;62136;-35.664;-63.766;2024-03-23T07:23:41;3.03;;;1.33;;
59974;SDS011;62136;-35.664;-63.766;2024-03-23T07:26:11;2.50;;;1.40;;
59974;SDS011;62136;-35.664;-63.766;2024-03-23T07:28:38;3.03;;;1.17;;
59974;SDS011;62136;-35.664;-63.766;2024-03-23T07:31:09;2.75;;;1.55;;
59974;SDS011;62136;-35.664;-63.766;2024-03-23T07:33:42;2.80;;;1.27;;
59974;SDS011;62136;-35.664;-63.766;2024-03-23T07:36:10;3.00;;;1.00;;
59974;SDS011;62136;-35.664;-63.766;2024-03-23T07:38:37;2.38;;;1.20;;
59974;SDS011;62136;-35.664;-63.766;2024-03-23T07:41:08;1.77;;;1.45;;
59974;SDS011;62136;-35.664;-63.766;2024-03-23T07:43:37;2.47;;;1.30;;
59974;SDS011;62136;-35.664;-63.766;2024-03-23T07:46:04;2.83;;;1.10;;
59974;SDS011;62136;-35.664;-63.766;2024-03-23T07:48:32;3.85;;;1.60;;
59974;SDS011;62136;-35.664;-63.766;2024-03-23T07:51:03;2.17;;;1.00;;
59974;SDS011;62136;-35.664;-63.766;2024-03-23T07:53:31;4.63;;;1.42;;
59974;SDS011;62136;-35.664;-63.766;2024-03-23T07:56:08;2.03;;;1.10;;
59974;SDS011;62136;-35.664;-63.766;2024-03-23T07:58:36;2.97;;;1.05;;
59974;SDS011;62136;-35.664;-63.766;2024-03-23T08:01:08;3.58;;;1.60;;
59974;SDS011;62136;-35.664;-63.766;2024-03-23T08:03:37;4.55;;;1.58;;
59974;SDS011;62136;-35.664;-63.766;2024-03-23T08:08:40;2.80;;;1.40;;
59974;SDS011;62136;-35.664;-63.766;2024-03-23T08:11:08;4.78;;;1.40;;
59974;SDS011;62136;-35.664;-63.766;2024-03-23T08:13:36;3.50;;;1.48;;
59974;SDS011;62136;-35.664;-63.766;2024-03-23T08:16:05;5.03;;;1.30;;
59974;SDS011;62136;-35.664;-63.766;2024-03-23T08:18:32;3.47;;;1.50;;
59974;SDS011;62136;-35.664;-63.766;2024-03-23T08:21:00;1.88;;;1.20;;
59974;SDS011;62136;-35.664;-63.766;2024-03-23T08:23:29;5.40;;;1.75;;
59974;SDS011;62136;-35.664;-63.766;2024-03-23T08:26:03;3.97;;;1.60;;
59974;SDS011;62136;-35.664;-63.766;2024-03-23T08:28:31;2.72;;;1.60;;
59974;SDS011;62136;-35.664;-63.766;2024-03-23T08:31:02;3.15;;;1.77;;
59974;SDS011;62136;-35.664;-63.766;2024-03-23T08:33:40;3.38;;;1.60;;
59974;SDS011;62136;-35.664;-63.766;2024-03-23T08:36:10;4.57;;;1.65;;
59974;SDS011;62136;-35.664;-63.766;2024-03-23T08:38:38;2.83;;;1.90;;
59974;SDS011;62136;-35.664;-63.766;2024-03-23T08:43:35;4.30;;;1.67;;
59974;SDS011;62136;-35.664;-63.766;2024-03-23T08:48:39;3.67;;;1.40;;
59974;SDS011;62136;-35.664;-63.766;2024-03-23T08:51:14;2.95;;;1.48;;
59974;SDS011;62136;-35.664;-63.766;2024-03-23T08:53:42;5.70;;;1.73;;
59974;SDS011;62136;-35.664;-63.766;2024-03-23T08:56:10;2.50;;;1.50;;
59974;SDS011;62136;-35.664;-63.766;2024-03-23T08:58:37;2.95;;;1.40;;
59974;SDS011;62136;-35.664;-63.766;2024-03-23T09:03:36;3.17;;;1.77;;
59974;SDS011;62136;-35.664;-63.766;2024-03-23T09:06:07;2.72;;;1.75;;
59974;SDS011;62136;-35.664;-63.766;2024-03-23T09:08:38;5.20;;;1.80;;
59974;SDS011;62136;-35.664;-63.766;2024-03-23T09:11:10;4.32;;;2.10;;
59974;SDS011;62136;-35.664;-63.766;2024-03-23T09:13:39;4.93;;;1.88;;
59974;SDS011;62136;-35.664;-63.766;2024-03-23T09:16:09;3.85;;;2.20;;
59974;SDS011;62136;-35.664;-63.766;2024-03-23T09:18:36;4.38;;;1.85;;
59974;SDS011;62136;-35.664;-63.766;2024-03-23T09:21:04;3.28;;;1.80;;
59974;SDS011;62136;-35.664;-63.766;2024-03-23T09:23:44;4.68;;;2.20;;
59974;SDS011;62136;-35.664;-63.766;2024-03-23T09:26:11;6.60;;;2.10;;
59974;SDS011;62136;-35.664;-63.766;2024-03-23T09:28:38;4.05;;;1.80;;
59974;SDS011;62136;-35.664;-63.766;2024-03-23T09:31:06;5.63;;;2.20;;
59974;SDS011;62136;-35.664;-63.766;2024-03-23T09:33:35;3.17;;;2.03;;
59974;SDS011;62136;-35.664;-63.766;2024-03-23T09:36:05;4.50;;;1.92;;
59974;SDS011;62136;-35.664;-63.766;2024-03-23T09:38:33;3.20;;;1.98;;
59974;SDS011;62136;-35.664;-63.766;2024-03-23T09:41:00;2.97;;;2.00;;
59974;SDS011;62136;-35.664;-63.766;2024-03-23T09:43:32;5.10;;;1.92;;
59974;SDS011;62136;-35.664;-63.766;2024-03-23T09:45:59;3.10;;;1.92;;
59974;SDS011;62136;-35.664;-63.766;2024-03-23T09:48:28;4.05;;;2.13;;
59974;SDS011;62136;-35.664;-63.766;2024-03-23T09:50:55;4.28;;;2.30;;
59974;SDS011;62136;-35.664;-63.766;2024-03-23T09:53:22;3.42;;;2.15;;
59974;SDS011;62136;-35.664;-63.766;2024-03-23T09:55:49;3.53;;;2.10;;
59974;SDS011;62136;-35.664;-63.766;2024-03-23T09:58:17;5.57;;;2.60;;
59974;SDS011;62136;-35.664;-63.766;2024-03-23T10:00:44;5.35;;;2.85;;
59974;SDS011;62136;-35.664;-63.766;2024-03-23T10:03:11;3.53;;;2.17;;
59974;SDS011;62136;-35.664;-63.766;2024-03-23T10:05:39;5.07;;;2.03;;
59974;SDS011;62136;-35.664;-63.766;2024-03-23T10:10:42;3.67;;;2.20;;
59974;SDS011;62136;-35.664;-63.766;2024-03-23T10:13:09;5.35;;;2.67;;
59974;SDS011;62136;-35.664;-63.766;2024-03-23T10:15:40;5.00;;;2.25;;
59974;SDS011;62136;-35.664;-63.766;2024-03-23T10:18:17;4.60;;;2.35;;
59974;SDS011;62136;-35.664;-63.766;2024-03-23T10:20:50;4.32;;;2.40;;
59974;SDS011;62136;-35.664;-63.766;2024-03-23T10:23:43;3.72;;;2.25;;
59974;SDS011;62136;-35.664;-63.766;2024-03-23T10:26:21;4.68;;;2.28;;
59974;SDS011;62136;-35.664;-63.766;2024-03-23T10:28:54;5.65;;;2.60;;
59974;SDS011;62136;-35.664;-63.766;2024-03-23T10:31:28;3.88;;;2.10;;
59974;SDS011;62136;-35.664;-63.766;2024-03-23T10:33:56;2.85;;;1.83;;
59974;SDS011;62136;-35.664;-63.766;2024-03-23T10:36:23;3.97;;;2.30;;
59974;SDS011;62136;-35.664;-63.766;2024-03-23T10:38:54;3.33;;;2.17;;
59974;SDS011;62136;-35.664;-63.766;2024-03-23T10:41:21;3.83;;;2.15;;
59974;SDS011;62136;-35.664;-63.766;2024-03-23T10:43:52;3.45;;;2.35;;
59974;SDS011;62136;-35.664;-63.766;2024-03-23T10:46:21;5.32;;;2.40;;
59974;SDS011;62136;-35.664;-63.766;2024-03-23T10:48:48;3.92;;;2.00;;
59974;SDS011;62136;-35.664;-63.766;2024-03-23T10:51:15;4.65;;;2.25;;
59974;SDS011;62136;-35.664;-63.766;2024-03-23T10:53:43;4.68;;;2.17;;
59974;SDS011;62136;-35.664;-63.766;2024-03-23T10:56:12;5.30;;;2.10;;
59974;SDS011;62136;-35.664;-63.766;2024-03-23T10:58:43;6.53;;;2.55;;
59974;SDS011;62136;-35.664;-63.766;2024-03-23T11:01:13;4.07;;;2.13;;
59974;SDS011;62136;-35.664;-63.766;2024-03-23T11:03:44;5.05;;;2.13;;
59974;SDS011;62136;-35.664;-63.766;2024-03-23T11:06:33;4.50;;;2.25;;
59974;SDS011;62136;-35.664;-63.766;2024-03-23T11:09:00;3.58;;;2.53;;
59974;SDS011;62136;-35.664;-63.766;2024-03-23T11:11:27;3.58;;;2.20;;
59974;SDS011;62136;-35.664;-63.766;2024-03-23T11:13:57;2.60;;;1.73;;
59974;SDS011;62136;-35.664;-63.766;2024-03-23T11:16:25;5.18;;;2.40;;
59974;SDS011;62136;-35.664;-63.766;2024-03-23T11:19:33;2.67;;;2.10;;
59974;SDS011;62136;-35.664;-63.766;2024-03-23T11:22:01;4.55;;;2.33;;
59974;SDS011;62136;-35.664;-63.766;2024-03-23T11:24:30;4.20;;;1.90;;
59974;SDS011;62136;-35.664;-63.766;2024-03-23T11:26:57;2.50;;;1.80;;
59974;SDS011;62136;-35.664;-63.766;2024-03-23T11:29:29;2.42;;;1.80;;
59974;SDS011;62136;-35.664;-63.766;2024-03-23T11:31:57;5.20;;;2.17;;
59974;SDS011;62136;-35.664;-63.766;2024-03-23T11:34:26;6.53;;;2.05;;
59974;SDS011;62136;-35.664;-63.766;2024-03-23T11:37:03;4.32;;;2.05;;
59974;SDS011;62136;-35.664;-63.766;2024-03-23T11:39:32;3.50;;;1.75;;
59974;SDS011;62136;-35.664;-63.766;2024-03-23T11:41:59;4.10;;;2.22;;
59974;SDS011;62136;-35.664;-63.766;2024-03-23T11:44:26;4.40;;;1.95;;
59974;SDS011;62136;-35.664;-63.766;2024-03-23T11:46:53;3.13;;;1.95;;
59974;SDS011;62136;-35.664;-63.766;2024-03-23T11:49:32;4.65;;;2.03;;
59974;SDS011;62136;-35.664;-63.766;2024-03-23T11:52:06;3.08;;;1.88;;
59974;SDS011;62136;-35.664;-63.766;2024-03-23T11:54:33;3.50;;;1.73;;
59974;SDS011;62136;-35.664;-63.766;2024-03-23T11:57:02;5.53;;;2.08;;
59974;SDS011;62136;-35.664;-63.766;2024-03-23T11:59:33;3.03;;;2.17;;
59974;SDS011;62136;-35.664;-63.766;2024-03-23T12:02:08;3.15;;;1.85;;
59974;SDS011;62136;-35.664;-63.766;2024-03-23T12:04:37;3.90;;;2.17;;
59974;SDS011;62136;-35.664;-63.766;2024-03-23T12:07:15;4.88;;;2.22;;
59974;SDS011;62136;-35.664;-63.766;2024-03-23T12:09:47;3.20;;;1.95;;
59974;SDS011;62136;-35.664;-63.766;2024-03-23T12:12:30;4.22;;;1.77;;
59974;SDS011;62136;-35.664;-63.766;2024-03-23T12:15:03;3.60;;;1.80;;
59974;SDS011;62136;-35.664;-63.766;2024-03-23T12:17:32;5.15;;;1.85;;
59974;SDS011;62136;-35.664;-63.766;2024-03-23T12:20:00;3.72;;;2.00;;
59974;SDS011;62136;-35.664;-63.766;2024-03-23T12:22:27;3.17;;;1.48;;
59974;SDS011;62136;-35.664;-63.766;2024-03-23T12:24:59;2.90;;;1.65;;
59974;SDS011;62136;-35.664;-63.766;2024-03-23T12:27:26;5.50;;;2.00;;
59974;SDS011;62136;-35.664;-63.766;2024-03-23T12:29:53;3.17;;;1.67;;
59974;SDS011;62136;-35.664;-63.766;2024-03-23T12:32:20;4.05;;;2.20;;
59974;SDS011;62136;-35.664;-63.766;2024-03-23T12:34:47;3.83;;;1.63;;
59974;SDS011;62136;-35.664;-63.766;2024-03-23T12:37:14;4.80;;;2.03;;
59974;SDS011;62136;-35.664;-63.766;2024-03-23T12:39:42;3.95;;;1.55;;
59974;SDS011;62136;-35.664;-63.766;2024-03-23T12:42:09;4.55;;;1.85;;
59974;SDS011;62136;-35.664;-63.766;2024-03-23T12:44:36;4.10;;;1.83;;
59974;SDS011;62136;-35.664;-63.766;2024-03-23T12:47:03;3.47;;;1.63;;
59974;SDS011;62136;-35.664;-63.766;2024-03-23T12:49:31;3.80;;;1.83;;
59974;SDS011;62136;-35.664;-63.766;2024-03-23T12:51:58;3.47;;;1.75;;
59974;SDS011;62136;-35.664;-63.766;2024-03-23T12:54:25;3.05;;;1.45;;
59974;SDS011;62136;-35.664;-63.766;2024-03-23T12:56:52;4.82;;;1.83;;
59974;SDS011;62136;-35.664;-63.766;2024-03-23T12:59:19;4.57;;;1.65;;
59974;SDS011;62136;-35.664;-63.766;2024-03-23T13:01:46;3.13;;;1.85;;
59974;SDS011;62136;-35.664;-63.766;2024-03-23T13:04:13;3.10;;;1.58;;
59974;SDS011;62136;-35.664;-63.766;2024-03-23T13:06:40;2.10;;;1.30;;
59974;SDS011;62136;-35.664;-63.766;2024-03-23T13:09:07;3.10;;;1.80;;
59974;SDS011;62136;-35.664;-63.766;2024-03-23T13:11:34;3.40;;;1.48;;
59974;SDS011;62136;-35.664;-63.766;2024-03-23T13:14:01;3.75;;;1.80;;
59974;SDS011;62136;-35.664;-63.766;2024-03-23T13:16:29;2.70;;;1.58;;
59974;SDS011;62136;-35.664;-63.766;2024-03-23T13:18:56;2.90;;;1.48;;
59974;SDS011;62136;-35.664;-63.766;2024-03-23T13:21:23;2.65;;;1.50;;
59974;SDS011;62136;-35.664;-63.766;2024-03-23T13:23:50;2.90;;;1.60;;
59974;SDS011;62136;-35.664;-63.766;2024-03-23T13:26:17;2.75;;;1.50;;
59974;SDS011;62136;-35.664;-63.766;2024-03-23T13:28:44;3.70;;;1.70;;
59974;SDS011;62136;-35.664;-63.766;2024-03-23T13:31:11;4.10;;;1.92;;
59974;SDS011;62136;-35.664;-63.766;2024-03-23T13:33:38;5.05;;;1.70;;
59974;SDS011;62136;-35.664;-63.766;2024-03-23T13:36:07;6.32;;;1.60;;
59974;SDS011;62136;-35.664;-63.766;2024-03-23T13:38:34;2.88;;;1.50;;
59974;SDS011;62136;-35.664;-63.766;2024-03-23T13:41:01;2.25;;;1.23;;
59974;SDS011;62136;-35.664;-63.766;2024-03-23T13:43:30;3.20;;;1.40;;
59974;SDS011;62136;-35.664;-63.766;2024-03-23T13:45:59;4.25;;;1.58;;
59974;SDS011;62136;-35.664;-63.766;2024-03-23T13:48:26;2.72;;;1.20;;
59974;SDS011;62136;-35.664;-63.766;2024-03-23T13:51:01;2.08;;;1.25;;
59974;SDS011;62136;-35.664;-63.766;2024-03-23T13:53:29;2.47;;;1.00;;
59974;SDS011;62136;-35.664;-63.766;2024-03-23T13:56:00;2.80;;;1.58;;
59974;SDS011;62136;-35.664;-63.766;2024-03-23T13:58:28;3.72;;;1.52;;
59974;SDS011;62136;-35.664;-63.766;2024-03-23T14:00:58;3.33;;;1.60;;
59974;SDS011;62136;-35.664;-63.766;2024-03-23T14:03:25;4.43;;;1.70;;
59974;SDS011;62136;-35.664;-63.766;2024-03-23T14:05:57;4.38;;;1.58;;
59974;SDS011;62136;-35.664;-63.766;2024-03-23T14:08:27;2.92;;;1.48;;
59974;SDS011;62136;-35.664;-63.766;2024-03-23T14:10:54;2.90;;;1.42;;
59974;SDS011;62136;-35.664;-63.766;2024-03-23T14:13:22;3.33;;;1.70;;
59974;SDS011;62136;-35.664;-63.766;2024-03-23T14:15:55;2.67;;;1.48;;
59974;SDS011;62136;-35.664;-63.766;2024-03-23T14:18:22;1.90;;;1.20;;
59974;SDS011;62136;-35.664;-63.766;2024-03-23T14:20:50;1.67;;;1.23;;
59974;SDS011;62136;-35.664;-63.766;2024-03-23T14:23:17;3.05;;;1.30;;
59974;SDS011;62136;-35.664;-63.766;2024-03-23T14:25:44;3.47;;;1.63;;
59974;SDS011;62136;-35.664;-63.766;2024-03-23T14:28:11;2.88;;;1.40;;
59974;SDS011;62136;-35.664;-63.766;2024-03-23T14:30:41;3.50;;;1.70;;
59974;SDS011;62136;-35.664;-63.766;2024-03-23T14:33:08;1.98;;;1.58;;
59974;SDS011;62136;-35.664;-63.766;2024-03-23T14:35:35;2.90;;;1.27;;
59974;SDS011;62136;-35.664;-63.766;2024-03-23T14:38:03;6.35;;;1.42;;
59974;SDS011;62136;-35.664;-63.766;2024-03-23T14:40:30;1.58;;;1.20;;
59974;SDS011;62136;-35.664;-63.766;2024-03-23T14:42:57;4.43;;;1.55;;
59974;SDS011;62136;-35.664;-63.766;2024-03-23T14:45:24;2.05;;;1.40;;
59974;SDS011;62136;-35.664;-63.766;2024-03-23T14:47:51;3.65;;;1.35;;
59974;SDS011;62136;-35.664;-63.766;2024-03-23T14:50:18;3.88;;;1.33;;
59974;SDS011;62136;-35.664;-63.766;2024-03-23T14:52:47;2.90;;;1.38;;
59974;SDS011;62136;-35.664;-63.766;2024-03-23T14:55:14;3.85;;;1.27;;
59974;SDS011;62136;-35.664;-63.766;2024-03-23T14:57:42;5.05;;;1.80;;
59974;SDS011;62136;-35.664;-63.766;2024-03-23T15:00:12;2.33;;;1.30;;
59974;SDS011;62136;-35.664;-63.766;2024-03-23T15:02:49;3.35;;;1.73;;
59974;SDS011;62136;-35.664;-63.766;2024-03-23T15:05:19;4.88;;;1.90;;
59974;SDS011;62136;-35.664;-63.766;2024-03-23T15:07:46;3.70;;;1.48;;
59974;SDS011;62136;-35.664;-63.766;2024-03-23T15:10:13;4.93;;;1.75;;
59974;SDS011;62136;-35.664;-63.766;2024-03-23T15:12:42;3.00;;;1.30;;
59974;SDS011;62136;-35.664;-63.766;2024-03-23T15:15:09;3.05;;;1.60;;
59974;SDS011;62136;-35.664;-63.766;2024-03-23T15:17:37;2.15;;;1.40;;
59974;SDS011;62136;-35.664;-63.766;2024-03-23T15:20:06;3.28;;;1.25;;
59974;SDS011;62136;-35.664;-63.766;2024-03-23T15:22:34;4.03;;;1.58;;
59974;SDS011;62136;-35.664;-63.766;2024-03-23T15:25:01;1.92;;;1.10;;